This is the latest recevied weather packets stored in our database for station/object KD1KE. If no packets are shown the sender has not sent any weather packets the latest 10 day(s).
| Time | Temp. | Humidity | Pressure | Rain* | Wind** | Luminosity | Snow |
|---|---|---|---|---|---|---|---|
| 1777907911 | 12.78° C | 59% | 1004.6 hPa | 0 mm | - | - | - |
| 1777907762 | 13.33° C | 58% | 1004.7 hPa | 0 mm | - | - | - |
| 1777907371 | 13.33° C | 59% | 1004.8 hPa | 0 mm | - | - | - |
| 1777907101 | 13.33° C | 60% | 1004.8 hPa | 0 mm | - | - | - |
| 1777906830 | 12.78° C | 58% | 1004.9 hPa | 0 mm | - | - | - |
| 1777906441 | 12.78° C | 57% | 1004.9 hPa | 0 mm | - | - | - |
| 1777906291 | 12.78° C | 57% | 1005 hPa | 0 mm | - | - | - |
| 1777905783 | 12.78° C | 58% | 1005 hPa | 0 mm | - | - | - |
| 1777905750 | 12.78° C | 58% | 1005.1 hPa | 0 mm | - | - | - |
| 1777905211 | 12.22° C | 59% | 1005.2 hPa | 0 mm | - | - | - |
| 1777905121 | 11.67° C | 60% | 1005.2 hPa | 0 mm | - | - | - |
| 1777904670 | 11.11° C | 61% | 1005.4 hPa | 0 mm | - | - | - |
| 1777904463 | 11.11° C | 61% | 1005.5 hPa | 0 mm | - | - | - |
| 1777903802 | 10.56° C | 62% | 1005.8 hPa | 0 mm | - | - | - |
| 1777903592 | 10.56° C | 61% | 1005.8 hPa | 0 mm | - | - | - |
| 1777903142 | 11.11° C | 60% | 1005.7 hPa | 0 mm | - | - | - |
| 1777903050 | 11.11° C | 59% | 1005.8 hPa | 0 mm | - | - | - |
| 1777902513 | 11.11° C | 57% | 1005.8 hPa | 0 mm | - | - | - |
| 1777902482 | 11.11° C | 57% | 1005.8 hPa | 0 mm | - | - | - |
| 1777901970 | 11.11° C | 57% | 1005.9 hPa | 0 mm | - | - | - |
| 1777901822 | 11.11° C | 58% | 1005.9 hPa | 0 mm | - | - | - |
| 1777901429 | 10° C | 58% | 1006.1 hPa | 0 mm | - | - | - |
| 1777901162 | 10° C | 59% | 1006.2 hPa | 0 mm | - | - | - |
| 1777900891 | 10° C | 61% | 1006.2 hPa | 0 mm | - | - | - |
| 1777900502 | 9.44° C | 61% | 1006.2 hPa | 0 mm | - | - | - |
* Rain latest hour (hover to see other rain measurements)
** Current wind speed in m/s (hover to see current wind gust speed)